PWSweather.com
Personal Weather Stations
Station Observations
COONRAPIDS
Minneapolis, MN 55433

Minneapolis, MN 55433

Lat: 45.187721, Lon: -93.36828

Elevation: 898

Station Type: Davis Vantage Pro 2

High Low Average
Temperature -3.1°F-19.5°C -24.9°F-31.6°C -12.2°F-24.6°C
Dew Point -9.3°F-22.9°C -34.2°F-36.8°C -21.9°F-29.9°C
Winds 11.5 mph 18.5 kmh Calm Calm 3.0 mph NW4.8 kmh NW
Wind Gusts 18.4 mph29.6 kmh -- 7.0 mph11.3 kmh
Humidity 76% 48% 62%
Pressure 30.32 in1026.8 mb 30.02 in1016.6 mb -
Precipitation 0.00 in0.0 mm - -
Hour Temp Dew Point Humidity Winds Wind Gusts Pressure Precip Precip Rate Daily Precip Total
12:00 AM -0.5°F-18.1°C -7.7°F-22.1°C 71% Calm Calm 2.3 mph3.7 kmh 30.04 in1017.3 mb - 0.00 in0.0 mm 0.00 in0.0 mm
12:10 AM -0.9°F-18.3°C -7.8°F-22.1°C 72% Calm Calm 2.3 mph3.7 kmh 30.04 in1017.3 mb - 0.00 in0.0 mm 0.00 in0.0 mm
12:20 AM -1.4°F-18.6°C -8.2°F-22.3°C 72% Calm Calm 2.3 mph3.7 kmh 30.04 in1017.3 mb - 0.00 in0.0 mm 0.00 in0.0 mm
12:30 AM -1.7°F-18.7°C -8.3°F-22.4°C 73% Calm Calm -- 30.04 in1017.3 mb - 0.00 in0.0 mm 0.00 in0.0 mm
12:40 AM -2.2°F-19.0°C -8.7°F-22.6°C 73% Calm Calm -- 30.04 in1017.3 mb - 0.00 in0.0 mm 0.00 in0.0 mm
12:50 AM -2.7°F-19.3°C -9.2°F-22.9°C 73% Calm Calm -- 30.04 in1017.3 mb - 0.00 in0.0 mm 0.00 in0.0 mm
01:00 AM -3.1°F-19.5°C -9.3°F-22.9°C 74% Calm Calm -- 30.03 in1016.9 mb - 0.00 in0.0 mm 0.00 in0.0 mm
01:10 AM -3.6°F-19.8°C -9.8°F-23.2°C 74% Calm Calm -- 30.03 in1016.9 mb - 0.00 in0.0 mm 0.00 in0.0 mm
01:20 AM -4.0°F-20.0°C -9.9°F-23.3°C 75% Calm Calm 1.2 mph1.9 kmh 30.03 in1016.9 mb - 0.00 in0.0 mm 0.00 in0.0 mm
01:30 AM -3.8°F-19.9°C -9.5°F-23.1°C 76% Calm Calm 3.5 mph5.6 kmh 30.03 in1016.9 mb - 0.00 in0.0 mm 0.00 in0.0 mm
01:40 AM -3.6°F-19.8°C -9.3°F-22.9°C 76% Calm Calm -- 30.03 in1016.9 mb - 0.00 in0.0 mm 0.00 in0.0 mm
01:50 AM -3.8°F-19.9°C -9.7°F-23.2°C 75% Calm Calm -- 30.03 in1016.9 mb - 0.00 in0.0 mm 0.00 in0.0 mm
02:00 AM -4.1°F-20.1°C -9.8°F-23.2°C 76% Calm Calm -- 30.03 in1016.9 mb - 0.00 in0.0 mm 0.00 in0.0 mm
02:10 AM -4.2°F-20.1°C -9.9°F-23.3°C 76% Calm Calm -- 30.03 in1016.9 mb - 0.00 in0.0 mm 0.00 in0.0 mm
02:20 AM -4.3°F-20.2°C -10.0°F-23.3°C 76% Calm Calm -- 30.03 in1016.9 mb - 0.00 in0.0 mm 0.00 in0.0 mm
02:30 AM -4.5°F-20.3°C -10.1°F-23.4°C 76% 1.2 mph NW1.9 kmh NW 1.2 mph1.9 kmh 30.03 in1016.9 mb - 0.00 in0.0 mm 0.00 in0.0 mm
02:40 AM -4.5°F-20.3°C -10.4°F-23.6°C 75% 1.2 mph NW1.9 kmh NW 4.6 mph7.4 kmh 30.02 in1016.6 mb - 0.00 in0.0 mm 0.00 in0.0 mm
02:50 AM -4.6°F-20.3°C -10.5°F-23.6°C 75% 1.2 mph NW1.9 kmh NW 4.6 mph7.4 kmh 30.03 in1016.9 mb - 0.00 in0.0 mm 0.00 in0.0 mm
03:00 AM -4.7°F-20.4°C -10.6°F-23.7°C 75% Calm Calm -- 30.03 in1016.9 mb - 0.00 in0.0 mm 0.00 in0.0 mm
03:10 AM -4.9°F-20.5°C -10.8°F-23.8°C 75% 1.2 mph WNW1.9 kmh WNW 3.5 mph5.6 kmh 30.03 in1016.9 mb - 0.00 in0.0 mm 0.00 in0.0 mm
03:20 AM -5.1°F-20.6°C -11.3°F-24.1°C 74% Calm Calm 3.5 mph5.6 kmh 30.03 in1016.9 mb - 0.00 in0.0 mm 0.00 in0.0 mm
03:30 AM -5.3°F-20.7°C -11.5°F-24.2°C 74% 1.2 mph WNW1.9 kmh WNW 1.2 mph1.9 kmh 30.03 in1016.9 mb - 0.00 in0.0 mm 0.00 in0.0 mm
03:40 AM -5.6°F-20.9°C -11.5°F-24.2°C 75% 1.2 mph NW1.9 kmh NW 3.5 mph5.6 kmh 30.03 in1016.9 mb - 0.00 in0.0 mm 0.00 in0.0 mm
03:50 AM -5.6°F-20.9°C -11.5°F-24.2°C 75% Calm Calm -- 30.04 in1017.3 mb - 0.00 in0.0 mm 0.00 in0.0 mm
04:00 AM -5.7°F-20.9°C -11.8°F-24.3°C 74% 1.2 mph NW1.9 kmh NW 3.5 mph5.6 kmh 30.04 in1017.3 mb - 0.00 in0.0 mm 0.00 in0.0 mm
04:10 AM -5.8°F-21.0°C -11.9°F-24.4°C 74% 1.2 mph NW1.9 kmh NW 3.5 mph5.6 kmh 30.03 in1016.9 mb - 0.00 in0.0 mm 0.00 in0.0 mm
04:20 AM -5.8°F-21.0°C -11.9°F-24.4°C 74% 2.3 mph WNW3.7 kmh WNW 3.5 mph5.6 kmh 30.04 in1017.3 mb - 0.00 in0.0 mm 0.00 in0.0 mm
04:30 AM -5.9°F-21.1°C -12.0°F-24.4°C 74% 2.3 mph NW3.7 kmh NW 5.8 mph9.3 kmh 30.03 in1016.9 mb - 0.00 in0.0 mm 0.00 in0.0 mm
04:40 AM -5.9°F-21.1°C -12.0°F-24.4°C 74% Calm Calm 1.2 mph1.9 kmh 30.03 in1016.9 mb - 0.00 in0.0 mm 0.00 in0.0 mm
04:50 AM -6.3°F-21.3°C -12.7°F-24.8°C 73% Calm Calm -- 30.03 in1016.9 mb - 0.00 in0.0 mm 0.00 in0.0 mm
05:00 AM -6.4°F-21.3°C -12.6°F-24.8°C 74% Calm Calm 1.2 mph1.9 kmh 30.03 in1016.9 mb - 0.00 in0.0 mm 0.00 in0.0 mm
05:10 AM -6.6°F-21.4°C -12.8°F-24.9°C 74% 1.2 mph NW1.9 kmh NW 1.2 mph1.9 kmh 30.03 in1016.9 mb - 0.00 in0.0 mm 0.00 in0.0 mm
05:20 AM -6.7°F-21.5°C -12.8°F-24.9°C 74% 1.2 mph NW1.9 kmh NW 3.5 mph5.6 kmh 30.03 in1016.9 mb - 0.00 in0.0 mm 0.00 in0.0 mm
05:30 AM -6.6°F-21.4°C -13.0°F-25.0°C 73% Calm Calm 1.2 mph1.9 kmh 30.03 in1016.9 mb - 0.00 in0.0 mm 0.00 in0.0 mm
05:40 AM -6.8°F-21.6°C -13.2°F-25.1°C 73% 1.2 mph NW1.9 kmh NW 2.3 mph3.7 kmh 30.04 in1017.3 mb - 0.00 in0.0 mm 0.00 in0.0 mm
05:50 AM -6.9°F-21.6°C -13.3°F-25.2°C 73% 1.2 mph NW1.9 kmh NW 4.6 mph7.4 kmh 30.03 in1016.9 mb - 0.00 in0.0 mm 0.00 in0.0 mm
06:00 AM -7.1°F-21.7°C -13.5°F-25.3°C 73% 1.2 mph NW1.9 kmh NW 2.3 mph3.7 kmh 30.04 in1017.3 mb - 0.00 in0.0 mm 0.00 in0.0 mm
06:10 AM -7.5°F-21.9°C -13.8°F-25.4°C 73% Calm Calm 3.5 mph5.6 kmh 30.04 in1017.3 mb - 0.00 in0.0 mm 0.00 in0.0 mm
06:20 AM -7.7°F-22.1°C -14.1°F-25.6°C 73% 1.2 mph NW1.9 kmh NW 3.5 mph5.6 kmh 30.04 in1017.3 mb - 0.00 in0.0 mm 0.00 in0.0 mm
06:30 AM -7.9°F-22.2°C -14.3°F-25.7°C 73% 1.2 mph NW1.9 kmh NW 2.3 mph3.7 kmh 30.04 in1017.3 mb - 0.00 in0.0 mm 0.00 in0.0 mm
06:40 AM -8.0°F-22.2°C -14.4°F-25.8°C 73% Calm Calm 1.2 mph1.9 kmh 30.04 in1017.3 mb - 0.00 in0.0 mm 0.00 in0.0 mm
06:50 AM -8.2°F-22.3°C -14.5°F-25.8°C 73% 1.2 mph NW1.9 kmh NW 3.5 mph5.6 kmh 30.05 in1017.6 mb - 0.00 in0.0 mm 0.00 in0.0 mm
07:00 AM -8.2°F-22.3°C -14.5°F-25.8°C 73% 1.2 mph NW1.9 kmh NW 3.5 mph5.6 kmh 30.04 in1017.3 mb - 0.00 in0.0 mm 0.00 in0.0 mm
07:10 AM -8.2°F-22.3°C -14.5°F-25.8°C 73% Calm Calm 3.5 mph5.6 kmh 30.05 in1017.6 mb - 0.00 in0.0 mm 0.00 in0.0 mm
07:20 AM -8.5°F-22.5°C -14.8°F-26.0°C 73% 1.2 mph NW1.9 kmh NW 2.3 mph3.7 kmh 30.05 in1017.6 mb - 0.00 in0.0 mm 0.00 in0.0 mm
07:30 AM -8.7°F-22.6°C -15.0°F-26.1°C 73% 1.2 mph NW1.9 kmh NW 2.3 mph3.7 kmh 30.05 in1017.6 mb - 0.00 in0.0 mm 0.00 in0.0 mm
07:40 AM -8.8°F-22.7°C -15.1°F-26.2°C 73% 1.2 mph NW1.9 kmh NW 3.5 mph5.6 kmh 30.06 in1017.9 mb - 0.00 in0.0 mm 0.00 in0.0 mm
07:50 AM -8.6°F-22.6°C -15.2°F-26.2°C 72% 2.3 mph NW3.7 kmh NW 4.6 mph7.4 kmh 30.06 in1017.9 mb - 0.00 in0.0 mm 0.00 in0.0 mm
08:00 AM -8.6°F-22.6°C -15.5°F-26.4°C 71% 2.3 mph NNW3.7 kmh NNW 6.9 mph11.1 kmh 30.06 in1017.9 mb - 0.00 in0.0 mm 0.00 in0.0 mm
08:10 AM -8.8°F-22.7°C -15.9°F-26.6°C 70% 3.5 mph NW5.6 kmh NW 4.6 mph7.4 kmh 30.06 in1017.9 mb - 0.00 in0.0 mm 0.00 in0.0 mm
08:20 AM -8.9°F-22.7°C -16.3°F-26.8°C 69% 2.3 mph NW3.7 kmh NW 3.5 mph5.6 kmh 30.07 in1018.3 mb - 0.00 in0.0 mm 0.00 in0.0 mm
08:30 AM -9.1°F-22.8°C -16.5°F-26.9°C 69% 2.3 mph W3.7 kmh W 3.5 mph5.6 kmh 30.08 in1018.6 mb - 0.00 in0.0 mm 0.00 in0.0 mm
08:40 AM -9.3°F-22.9°C -17.0°F-27.2°C 68% 3.5 mph NW5.6 kmh NW 4.6 mph7.4 kmh 30.08 in1018.6 mb - 0.00 in0.0 mm 0.00 in0.0 mm
08:50 AM -9.5°F-23.1°C -17.2°F-27.3°C 68% 1.2 mph NNW1.9 kmh NNW 3.5 mph5.6 kmh 30.08 in1018.6 mb - 0.00 in0.0 mm 0.00 in0.0 mm
09:00 AM -9.7°F-23.2°C -17.6°F-27.6°C 67% 2.3 mph NW3.7 kmh NW 4.6 mph7.4 kmh 30.09 in1019.0 mb - 0.00 in0.0 mm 0.00 in0.0 mm
09:10 AM -9.6°F-23.1°C -17.6°F-27.6°C 67% 2.3 mph NW3.7 kmh NW 3.5 mph5.6 kmh 30.09 in1019.0 mb - 0.00 in0.0 mm 0.00 in0.0 mm
09:20 AM -9.7°F-23.2°C -18.0°F-27.8°C 66% 2.3 mph NW3.7 kmh NW 3.5 mph5.6 kmh 30.10 in1019.3 mb - 0.00 in0.0 mm 0.00 in0.0 mm
09:30 AM -9.9°F-23.3°C -18.5°F-28.1°C 65% 1.2 mph NNW1.9 kmh NNW 3.5 mph5.6 kmh 30.11 in1019.6 mb - 0.00 in0.0 mm 0.00 in0.0 mm
09:40 AM -10.0°F-23.3°C -18.9°F-28.3°C 64% 1.2 mph NNW1.9 kmh NNW 4.6 mph7.4 kmh 30.11 in1019.6 mb - 0.00 in0.0 mm 0.00 in0.0 mm
09:50 AM -9.5°F-23.1°C -18.4°F-28.0°C 64% 2.3 mph NNW3.7 kmh NNW 4.6 mph7.4 kmh 30.11 in1019.6 mb - 0.00 in0.0 mm 0.00 in0.0 mm
10:00 AM -9.1°F-22.8°C -18.6°F-28.1°C 62% 5.8 mph NW9.3 kmh NW 10.4 mph16.7 kmh 30.12 in1020.0 mb - 0.00 in0.0 mm 0.00 in0.0 mm
10:10 AM -8.7°F-22.6°C -18.6°F-28.1°C 61% 3.5 mph NW5.6 kmh NW 8.1 mph13.0 kmh 30.12 in1020.0 mb - 0.00 in0.0 mm 0.00 in0.0 mm
10:20 AM -8.4°F-22.4°C -18.9°F-28.3°C 59% 4.6 mph N7.4 kmh N 6.9 mph11.1 kmh 30.12 in1020.0 mb - 0.00 in0.0 mm 0.00 in0.0 mm
10:30 AM -8.2°F-22.3°C -19.1°F-28.4°C 58% 2.3 mph NNW3.7 kmh NNW 4.6 mph7.4 kmh 30.12 in1020.0 mb - 0.00 in0.0 mm 0.00 in0.0 mm
10:40 AM -7.8°F-22.1°C -19.0°F-28.3°C 57% 3.5 mph N5.6 kmh N 3.5 mph5.6 kmh 30.12 in1020.0 mb - 0.00 in0.0 mm 0.00 in0.0 mm
10:50 AM -7.9°F-22.2°C -19.8°F-28.8°C 55% 2.3 mph NNW3.7 kmh NNW 6.9 mph11.1 kmh 30.12 in1020.0 mb - 0.00 in0.0 mm 0.00 in0.0 mm
11:00 AM -8.0°F-22.2°C -20.2°F-29.0°C 54% 5.8 mph NNW9.3 kmh NNW 9.2 mph14.8 kmh 30.13 in1020.3 mb - 0.00 in0.0 mm 0.00 in0.0 mm
11:10 AM -8.0°F-22.2°C -20.6°F-29.2°C 53% 5.8 mph NNW9.3 kmh NNW 10.4 mph16.7 kmh 30.13 in1020.3 mb - 0.00 in0.0 mm 0.00 in0.0 mm
11:20 AM -7.7°F-22.1°C -20.3°F-29.1°C 53% 3.5 mph N5.6 kmh N 5.8 mph9.3 kmh 30.13 in1020.3 mb - 0.00 in0.0 mm 0.00 in0.0 mm
11:30 AM -7.7°F-22.1°C -20.6°F-29.2°C 52% 3.5 mph N5.6 kmh N 8.1 mph13.0 kmh 30.14 in1020.7 mb - 0.00 in0.0 mm 0.00 in0.0 mm
11:40 AM -7.2°F-21.8°C -19.9°F-28.8°C 53% 2.3 mph NW3.7 kmh NW 3.5 mph5.6 kmh 30.14 in1020.7 mb - 0.00 in0.0 mm 0.00 in0.0 mm
11:50 AM -7.6°F-22.0°C -21.3°F-29.6°C 50% 3.5 mph N5.6 kmh N 5.8 mph9.3 kmh 30.14 in1020.7 mb - 0.00 in0.0 mm 0.00 in0.0 mm
12:00 PM -7.5°F-21.9°C -21.3°F-29.6°C 50% 4.6 mph NW7.4 kmh NW 12.7 mph20.4 kmh 30.14 in1020.7 mb - 0.00 in0.0 mm 0.00 in0.0 mm
12:10 PM -7.5°F-21.9°C -21.3°F-29.6°C 50% 5.8 mph NW9.3 kmh NW 12.7 mph20.4 kmh 30.14 in1020.7 mb - 0.00 in0.0 mm 0.00 in0.0 mm
12:20 PM -7.0°F-21.7°C -20.4°F-29.1°C 51% 5.8 mph NNW9.3 kmh NNW 9.2 mph14.8 kmh 30.14 in1020.7 mb - 0.00 in0.0 mm 0.00 in0.0 mm
12:30 PM -7.3°F-21.8°C -21.5°F-29.7°C 49% 3.5 mph N5.6 kmh N 3.5 mph5.6 kmh 30.14 in1020.7 mb - 0.00 in0.0 mm 0.00 in0.0 mm
12:40 PM -7.3°F-21.8°C -21.9°F-29.9°C 48% 5.8 mph N9.3 kmh N 8.1 mph13.0 kmh 30.13 in1020.3 mb - 0.00 in0.0 mm 0.00 in0.0 mm
12:50 PM -7.0°F-21.7°C -21.2°F-29.6°C 49% 2.3 mph NW3.7 kmh NW 3.5 mph5.6 kmh 30.13 in1020.3 mb - 0.00 in0.0 mm 0.00 in0.0 mm
01:00 PM -7.2°F-21.8°C -21.8°F-29.9°C 48% 6.9 mph NNW11.1 kmh NNW 9.2 mph14.8 kmh 30.13 in1020.3 mb - 0.00 in0.0 mm 0.00 in0.0 mm
01:10 PM -7.0°F-21.7°C -20.8°F-29.3°C 50% 4.6 mph NW7.4 kmh NW 11.5 mph18.5 kmh 30.13 in1020.3 mb - 0.00 in0.0 mm 0.00 in0.0 mm
01:20 PM -7.4°F-21.9°C -21.5°F-29.7°C 49% 4.6 mph NW7.4 kmh NW 11.5 mph18.5 kmh 30.13 in1020.3 mb - 0.00 in0.0 mm 0.00 in0.0 mm
01:30 PM -7.4°F-21.9°C -21.2°F-29.6°C 50% 8.1 mph NW13.0 kmh NW 15.0 mph24.1 kmh 30.13 in1020.3 mb - 0.00 in0.0 mm 0.00 in0.0 mm
01:40 PM -7.6°F-22.0°C -21.3°F-29.6°C 50% 4.6 mph W7.4 kmh W 16.1 mph25.9 kmh 30.13 in1020.3 mb - 0.00 in0.0 mm 0.00 in0.0 mm
01:50 PM -7.8°F-22.1°C -21.9°F-29.9°C 49% 4.6 mph NW7.4 kmh NW 11.5 mph18.5 kmh 30.13 in1020.3 mb - 0.00 in0.0 mm 0.00 in0.0 mm
02:00 PM -8.5°F-22.5°C -22.6°F-30.3°C 49% 5.8 mph NW9.3 kmh NW 10.4 mph16.7 kmh 30.13 in1020.3 mb - 0.00 in0.0 mm 0.00 in0.0 mm
02:10 PM -8.0°F-22.2°C -21.7°F-29.8°C 50% 4.6 mph WNW7.4 kmh WNW 13.8 mph22.2 kmh 30.13 in1020.3 mb - 0.00 in0.0 mm 0.00 in0.0 mm
02:20 PM -8.6°F-22.6°C -22.7°F-30.4°C 49% 5.8 mph WNW9.3 kmh WNW 12.7 mph20.4 kmh 30.13 in1020.3 mb - 0.00 in0.0 mm 0.00 in0.0 mm
02:30 PM -9.3°F-22.9°C -23.3°F-30.7°C 49% 5.8 mph W9.3 kmh W 10.4 mph16.7 kmh 30.13 in1020.3 mb - 0.00 in0.0 mm 0.00 in0.0 mm
02:40 PM -9.4°F-23.0°C -23.1°F-30.6°C 50% 8.1 mph NW13.0 kmh NW 11.5 mph18.5 kmh 30.13 in1020.3 mb - 0.00 in0.0 mm 0.00 in0.0 mm
02:50 PM -9.9°F-23.3°C -23.5°F-30.8°C 50% 4.6 mph NW7.4 kmh NW 13.8 mph22.2 kmh 30.13 in1020.3 mb - 0.00 in0.0 mm 0.00 in0.0 mm
03:00 PM -9.7°F-23.2°C -23.7°F-30.9°C 49% 6.9 mph WNW11.1 kmh WNW 13.8 mph22.2 kmh 30.14 in1020.7 mb - 0.00 in0.0 mm 0.00 in0.0 mm
03:10 PM -10.2°F-23.4°C -24.2°F-31.2°C 49% 3.5 mph WNW5.6 kmh WNW 11.5 mph18.5 kmh 30.13 in1020.3 mb - 0.00 in0.0 mm 0.00 in0.0 mm
03:20 PM -10.7°F-23.7°C -25.0°F-31.7°C 48% 8.1 mph WNW13.0 kmh WNW 18.4 mph29.6 kmh 30.13 in1020.3 mb - 0.00 in0.0 mm 0.00 in0.0 mm
03:30 PM -10.9°F-23.8°C -24.5°F-31.4°C 50% 8.1 mph NW13.0 kmh NW 11.5 mph18.5 kmh 30.14 in1020.7 mb - 0.00 in0.0 mm 0.00 in0.0 mm
03:40 PM -11.3°F-24.1°C -24.8°F-31.6°C 50% 6.9 mph WNW11.1 kmh WNW 18.4 mph29.6 kmh 30.14 in1020.7 mb - 0.00 in0.0 mm 0.00 in0.0 mm
03:50 PM -12.2°F-24.6°C -25.3°F-31.8°C 51% 6.9 mph NW11.1 kmh NW 15.0 mph24.1 kmh 30.14 in1020.7 mb - 0.00 in0.0 mm 0.00 in0.0 mm
04:00 PM -12.9°F-24.9°C -25.6°F-32.0°C 52% 8.1 mph WNW13.0 kmh WNW 12.7 mph20.4 kmh 30.15 in1021.0 mb - 0.00 in0.0 mm 0.00 in0.0 mm
04:10 PM -13.2°F-25.1°C -25.8°F-32.1°C 52% 11.5 mph WNW18.5 kmh WNW 16.1 mph25.9 kmh 30.15 in1021.0 mb - 0.00 in0.0 mm 0.00 in0.0 mm
04:20 PM -13.9°F-25.5°C -26.5°F-32.5°C 52% 4.6 mph W7.4 kmh W 15.0 mph24.1 kmh 30.15 in1021.0 mb - 0.00 in0.0 mm 0.00 in0.0 mm
04:30 PM -14.2°F-25.7°C -26.8°F-32.7°C 52% 4.6 mph NW7.4 kmh NW 9.2 mph14.8 kmh 30.16 in1021.3 mb - 0.00 in0.0 mm 0.00 in0.0 mm
04:40 PM -14.6°F-25.9°C -27.1°F-32.8°C 52% 9.2 mph NW14.8 kmh NW 11.5 mph18.5 kmh 30.16 in1021.3 mb - 0.00 in0.0 mm 0.00 in0.0 mm
04:50 PM -15.1°F-26.2°C -28.0°F-33.3°C 51% 5.8 mph W9.3 kmh W 12.7 mph20.4 kmh 30.16 in1021.3 mb - 0.00 in0.0 mm 0.00 in0.0 mm
05:00 PM -15.2°F-26.2°C -27.7°F-33.2°C 52% 6.9 mph NW11.1 kmh NW 10.4 mph16.7 kmh 30.17 in1021.7 mb - 0.00 in0.0 mm 0.00 in0.0 mm
05:10 PM -15.5°F-26.4°C -28.0°F-33.3°C 52% 8.1 mph WNW13.0 kmh WNW 16.1 mph25.9 kmh 30.17 in1021.7 mb - 0.00 in0.0 mm 0.00 in0.0 mm
05:20 PM -15.7°F-26.5°C -27.8°F-33.2°C 53% 4.6 mph NW7.4 kmh NW 9.2 mph14.8 kmh 30.18 in1022.0 mb - 0.00 in0.0 mm 0.00 in0.0 mm
05:30 PM -16.2°F-26.8°C -28.7°F-33.7°C 52% 4.6 mph NNW7.4 kmh NNW 4.6 mph7.4 kmh 30.18 in1022.0 mb - 0.00 in0.0 mm 0.00 in0.0 mm
05:40 PM -16.6°F-27.0°C -29.0°F-33.9°C 52% 3.5 mph W5.6 kmh W 6.9 mph11.1 kmh 30.18 in1022.0 mb - 0.00 in0.0 mm 0.00 in0.0 mm
05:50 PM -17.1°F-27.3°C -29.5°F-34.2°C 52% 5.8 mph NW9.3 kmh NW 12.7 mph20.4 kmh 30.18 in1022.0 mb - 0.00 in0.0 mm 0.00 in0.0 mm
06:00 PM -17.5°F-27.5°C -29.5°F-34.2°C 53% 6.9 mph NW11.1 kmh NW 18.4 mph29.6 kmh 30.20 in1022.7 mb - 0.00 in0.0 mm 0.00 in0.0 mm
06:10 PM -18.0°F-27.8°C -29.6°F-34.2°C 54% 5.8 mph NW9.3 kmh NW 10.4 mph16.7 kmh 30.20 in1022.7 mb - 0.00 in0.0 mm 0.00 in0.0 mm
06:20 PM -18.3°F-27.9°C -29.6°F-34.2°C 55% 5.8 mph NW9.3 kmh NW 11.5 mph18.5 kmh 30.20 in1022.7 mb - 0.00 in0.0 mm 0.00 in0.0 mm
06:30 PM -18.5°F-28.1°C -29.4°F-34.1°C 56% 5.8 mph W9.3 kmh W 10.4 mph16.7 kmh 30.21 in1023.0 mb - 0.00 in0.0 mm 0.00 in0.0 mm
06:40 PM -18.7°F-28.2°C -29.0°F-33.9°C 58% 3.5 mph NW5.6 kmh NW 11.5 mph18.5 kmh 30.21 in1023.0 mb - 0.00 in0.0 mm 0.00 in0.0 mm
06:50 PM -18.9°F-28.3°C -29.5°F-34.2°C 57% 4.6 mph NW7.4 kmh NW 5.8 mph9.3 kmh 30.22 in1023.4 mb - 0.00 in0.0 mm 0.00 in0.0 mm
07:00 PM -19.1°F-28.4°C -30.0°F-34.4°C 56% 2.3 mph NW3.7 kmh NW 6.9 mph11.1 kmh 30.22 in1023.4 mb - 0.00 in0.0 mm 0.00 in0.0 mm
07:10 PM -19.3°F-28.5°C -30.5°F-34.7°C 55% 6.9 mph NW11.1 kmh NW 12.7 mph20.4 kmh 30.23 in1023.7 mb - 0.00 in0.0 mm 0.00 in0.0 mm
07:20 PM -19.5°F-28.6°C -30.4°F-34.7°C 56% 8.1 mph NW13.0 kmh NW 13.8 mph22.2 kmh 30.23 in1023.7 mb - 0.00 in0.0 mm 0.00 in0.0 mm
07:30 PM -19.7°F-28.7°C -30.3°F-34.6°C 57% 5.8 mph NW9.3 kmh NW 9.2 mph14.8 kmh 30.23 in1023.7 mb - 0.00 in0.0 mm 0.00 in0.0 mm
07:40 PM -20.1°F-28.9°C -31.0°F-35.0°C 56% 8.1 mph NW13.0 kmh NW 13.8 mph22.2 kmh 30.23 in1023.7 mb - 0.00 in0.0 mm 0.00 in0.0 mm
07:50 PM -20.3°F-29.1°C -31.1°F-35.1°C 56% 3.5 mph NW5.6 kmh NW 6.9 mph11.1 kmh 30.24 in1024.0 mb - 0.00 in0.0 mm 0.00 in0.0 mm
08:00 PM -20.5°F-29.2°C -31.7°F-35.4°C 55% 6.9 mph NW11.1 kmh NW 15.0 mph24.1 kmh 30.24 in1024.0 mb - 0.00 in0.0 mm 0.00 in0.0 mm
08:10 PM -20.6°F-29.2°C -31.8°F-35.4°C 55% 3.5 mph NW5.6 kmh NW 11.5 mph18.5 kmh 30.24 in1024.0 mb - 0.00 in0.0 mm 0.00 in0.0 mm
08:20 PM -20.8°F-29.3°C -30.9°F-34.9°C 58% 1.2 mph WSW1.9 kmh WSW 3.5 mph5.6 kmh 30.25 in1024.4 mb - 0.00 in0.0 mm 0.00 in0.0 mm
08:30 PM -20.8°F-29.3°C -30.7°F-34.8°C 59% 3.5 mph NW5.6 kmh NW 6.9 mph11.1 kmh 30.25 in1024.4 mb - 0.00 in0.0 mm 0.00 in0.0 mm
08:40 PM -21.0°F-29.4°C -30.9°F-34.9°C 59% 9.2 mph NNW14.8 kmh NNW 12.7 mph20.4 kmh 30.26 in1024.7 mb - 0.00 in0.0 mm 0.00 in0.0 mm
08:50 PM -21.1°F-29.5°C -31.0°F-35.0°C 59% 2.3 mph NW3.7 kmh NW 5.8 mph9.3 kmh 30.26 in1024.7 mb - 0.00 in0.0 mm 0.00 in0.0 mm
09:00 PM -21.2°F-29.6°C -31.1°F-35.1°C 59% 3.5 mph NW5.6 kmh NW 8.1 mph13.0 kmh 30.26 in1024.7 mb - 0.00 in0.0 mm 0.00 in0.0 mm
09:10 PM -21.2°F-29.6°C -30.7°F-34.8°C 60% 4.6 mph NW7.4 kmh NW 11.5 mph18.5 kmh 30.27 in1025.1 mb - 0.00 in0.0 mm 0.00 in0.0 mm
09:20 PM -21.4°F-29.7°C -30.3°F-34.6°C 62% 5.8 mph NW9.3 kmh NW 10.4 mph16.7 kmh 30.27 in1025.1 mb - 0.00 in0.0 mm 0.00 in0.0 mm
09:30 PM -21.5°F-29.7°C -30.1°F-34.5°C 63% 4.6 mph NW7.4 kmh NW 11.5 mph18.5 kmh 30.27 in1025.1 mb - 0.00 in0.0 mm 0.00 in0.0 mm
09:40 PM -21.7°F-29.8°C -30.3°F-34.6°C 63% 1.2 mph WNW1.9 kmh WNW 1.2 mph1.9 kmh 30.28 in1025.4 mb - 0.00 in0.0 mm 0.00 in0.0 mm
09:50 PM -21.9°F-29.9°C -30.5°F-34.7°C 63% 2.3 mph N3.7 kmh N 3.5 mph5.6 kmh 30.28 in1025.4 mb - 0.00 in0.0 mm 0.00 in0.0 mm
10:00 PM -22.1°F-30.1°C -30.7°F-34.8°C 63% 4.6 mph NW7.4 kmh NW 9.2 mph14.8 kmh 30.29 in1025.7 mb - 0.00 in0.0 mm 0.00 in0.0 mm
10:10 PM -22.3°F-30.2°C -31.5°F-35.3°C 61% 2.3 mph NW3.7 kmh NW 8.1 mph13.0 kmh 30.29 in1025.7 mb - 0.00 in0.0 mm 0.00 in0.0 mm
10:20 PM -22.6°F-30.3°C -31.5°F-35.3°C 62% 4.6 mph NW7.4 kmh NW 9.2 mph14.8 kmh 30.29 in1025.7 mb - 0.00 in0.0 mm 0.00 in0.0 mm
10:30 PM -22.9°F-30.5°C -32.0°F-35.6°C 61% 6.9 mph NW11.1 kmh NW 10.4 mph16.7 kmh 30.30 in1026.1 mb - 0.00 in0.0 mm 0.00 in0.0 mm
10:40 PM -23.1°F-30.6°C -32.9°F-36.1°C 59% 2.3 mph NW3.7 kmh NW 6.9 mph11.1 kmh 30.30 in1026.1 mb - 0.00 in0.0 mm 0.00 in0.0 mm
10:50 PM -23.3°F-30.7°C -32.7°F-35.9°C 60% 2.3 mph NW3.7 kmh NW 10.4 mph16.7 kmh 30.30 in1026.1 mb - 0.00 in0.0 mm 0.00 in0.0 mm
11:00 PM -23.5°F-30.8°C -32.9°F-36.1°C 60% 1.2 mph NW1.9 kmh NW 6.9 mph11.1 kmh 30.30 in1026.1 mb - 0.00 in0.0 mm 0.00 in0.0 mm
11:10 PM -23.7°F-30.9°C -32.8°F-36.0°C 61% 2.3 mph NW3.7 kmh NW 5.8 mph9.3 kmh 30.31 in1026.4 mb - 0.00 in0.0 mm 0.00 in0.0 mm
11:20 PM -23.9°F-31.1°C -33.0°F-36.1°C 61% 4.6 mph NW7.4 kmh NW 8.1 mph13.0 kmh 30.31 in1026.4 mb - 0.00 in0.0 mm 0.00 in0.0 mm
11:30 PM -24.2°F-31.2°C -33.3°F-36.3°C 61% 1.2 mph NW1.9 kmh NW 9.2 mph14.8 kmh 30.31 in1026.4 mb - 0.00 in0.0 mm 0.00 in0.0 mm
11:40 PM -24.4°F-31.3°C -33.5°F-36.4°C 61% 6.9 mph NW11.1 kmh NW 9.2 mph14.8 kmh 30.31 in1026.4 mb - 0.00 in0.0 mm 0.00 in0.0 mm
11:50 PM -24.6°F-31.4°C -34.0°F-36.7°C 60% 5.8 mph NW9.3 kmh NW 11.5 mph18.5 kmh 30.31 in1026.4 mb - 0.00 in0.0 mm 0.00 in0.0 mm